createdAt,value
2019-04-29T00:01:51.095Z,5.83
2019-04-29T00:04:17.987Z,2.60
2019-04-29T00:06:45.090Z,4.20
2019-04-29T00:09:16.122Z,2.80
2019-04-29T00:11:43.678Z,2.85
2019-04-29T00:14:10.842Z,1.62
2019-04-29T00:16:37.830Z,2.20
2019-04-29T00:19:08.067Z,2.20
2019-04-29T00:21:35.366Z,1.62
2019-04-29T00:24:04.584Z,1.65
2019-04-29T00:26:33.611Z,1.32
2019-04-29T00:29:00.572Z,1.07
2019-04-29T00:31:29.146Z,1.27
2019-04-29T00:33:56.107Z,1.70
2019-04-29T00:36:25.315Z,0.70
2019-04-29T00:38:52.815Z,1.57
2019-04-29T00:41:25.462Z,0.93
2019-04-29T00:43:57.684Z,0.90
2019-04-29T00:46:25.040Z,1.07
2019-04-29T00:48:52.507Z,1.45
2019-04-29T00:51:19.503Z,1.80
2019-04-29T00:53:48.033Z,2.15
2019-04-29T00:56:15.381Z,2.47
2019-04-29T00:58:42.446Z,2.35
2019-04-29T01:01:12.347Z,2.55
2019-04-29T01:03:41.143Z,2.42
2019-04-29T01:06:08.826Z,2.40
2019-04-29T01:08:36.251Z,2.37
2019-04-29T01:11:03.543Z,1.37
2019-04-29T01:13:30.806Z,2.02
2019-04-29T01:15:58.008Z,0.98
2019-04-29T01:18:25.563Z,0.93
2019-04-29T01:20:52.958Z,0.75
2019-04-29T01:23:22.445Z,0.62
2019-04-29T01:25:51.722Z,1.57
2019-04-29T01:28:18.975Z,1.32
2019-04-29T01:30:58.251Z,1.45
2019-04-29T01:33:25.855Z,0.93
2019-04-29T01:36:04.355Z,1.02
2019-04-29T01:38:31.367Z,1.15
2019-04-29T01:41:04.594Z,1.32
2019-04-29T01:43:49.959Z,0.80
2019-04-29T01:46:17.195Z,1.15
2019-04-29T01:48:44.764Z,2.12
2019-04-29T01:51:11.847Z,2.37
2019-04-29T01:53:39.031Z,0.88
2019-04-29T01:56:06.582Z,1.10
2019-04-29T01:58:33.775Z,0.80
2019-04-29T02:01:01.966Z,0.40
2019-04-29T02:03:29.570Z,0.82
2019-04-29T02:05:56.989Z,1.02
2019-04-29T02:08:24.199Z,0.70
2019-04-29T02:10:51.394Z,0.65
2019-04-29T02:13:19.864Z,0.78
2019-04-29T02:15:46.767Z,1.50
2019-04-29T02:18:13.683Z,1.20
2019-04-29T02:20:40.780Z,1.20
2019-04-29T02:23:12.189Z,1.00
2019-04-29T02:25:40.956Z,2.15
2019-04-29T02:28:07.850Z,0.98
2019-04-29T02:30:44.540Z,2.50
2019-04-29T02:33:11.705Z,4.17
2019-04-29T02:35:39.411Z,1.82
2019-04-29T02:38:08.332Z,2.12
2019-04-29T02:40:54.661Z,2.27
2019-04-29T02:43:29.907Z,1.90
2019-04-29T02:45:57.295Z,1.15
2019-04-29T02:48:29.104Z,1.90
2019-04-29T02:50:54.653Z,1.87
2019-04-29T02:53:21.670Z,2.30
2019-04-29T02:55:50.424Z,1.37
2019-04-29T02:58:22.057Z,1.70
2019-04-29T03:01:08.506Z,1.40
2019-04-29T03:06:05.201Z,5.25
2019-04-29T03:08:32.716Z,2.25
2019-04-29T03:11:00.231Z,2.62
2019-04-29T03:13:27.247Z,2.42
2019-04-29T03:15:54.449Z,4.03
2019-04-29T03:18:24.024Z,4.80
2019-04-29T03:20:53.761Z,5.30
2019-04-29T03:23:23.251Z,4.28
2019-04-29T03:25:50.486Z,3.55
2019-04-29T03:28:17.678Z,4.25
2019-04-29T03:30:45.381Z,4.17
2019-04-29T03:33:12.734Z,4.10
2019-04-29T03:35:39.823Z,3.40
2019-04-29T03:38:07.475Z,4.22
2019-04-29T03:40:34.777Z,3.27
2019-04-29T03:43:02.095Z,4.15
2019-04-29T03:45:29.663Z,3.20
2019-04-29T03:47:56.771Z,5.15
2019-04-29T03:50:23.673Z,5.80
2019-04-29T03:52:50.527Z,3.62
2019-04-29T03:55:17.532Z,3.25
2019-04-29T03:57:45.179Z,3.20
2019-04-29T04:00:16.179Z,3.65
2019-04-29T04:02:46.215Z,3.98
2019-04-29T04:05:24.349Z,3.55
2019-04-29T04:07:59.153Z,4.85
2019-04-29T04:10:26.362Z,5.58
2019-04-29T04:12:53.558Z,8.25
2019-04-29T04:15:20.932Z,5.40
2019-04-29T04:17:50.064Z,4.75
2019-04-29T04:20:16.916Z,4.10
2019-04-29T04:22:47.274Z,2.55
2019-04-29T04:25:20.076Z,3.35
2019-04-29T04:27:46.958Z,2.37
2019-04-29T04:30:15.954Z,2.85
2019-04-29T04:32:43.572Z,5.35
2019-04-29T04:35:11.247Z,2.72
2019-04-29T04:37:38.298Z,3.50
2019-04-29T04:40:08.994Z,1.70
2019-04-29T04:42:36.153Z,1.47
2019-04-29T04:45:07.124Z,1.32
2019-04-29T04:47:34.232Z,1.92
2019-04-29T04:50:03.657Z,1.82
2019-04-29T04:52:31.379Z,2.58
2019-04-29T04:54:58.879Z,2.62
2019-04-29T04:57:25.791Z,5.33
2019-04-29T04:59:52.711Z,5.50
2019-04-29T05:02:21.695Z,5.00
2019-04-29T05:04:48.875Z,3.55
2019-04-29T05:07:16.031Z,2.12
2019-04-29T05:09:43.026Z,2.30
2019-04-29T05:12:10.463Z,3.83
2019-04-29T05:14:38.050Z,3.67
2019-04-29T05:17:05.343Z,4.08
2019-04-29T05:19:32.326Z,4.47
2019-04-29T05:21:59.387Z,6.62
2019-04-29T05:24:30.009Z,7.83
2019-04-29T05:26:57.162Z,7.20
2019-04-29T05:29:24.351Z,4.53
2019-04-29T05:31:51.222Z,5.75
2019-04-29T05:34:20.031Z,5.05
2019-04-29T05:36:48.942Z,4.22
2019-04-29T05:39:17.852Z,6.08
2019-04-29T05:41:45.062Z,3.58
2019-04-29T05:44:20.681Z,4.42
2019-04-29T05:46:52.655Z,3.40
2019-04-29T05:49:21.599Z,4.65
2019-04-29T05:51:53.238Z,4.20
2019-04-29T05:54:22.144Z,3.70
2019-04-29T05:56:49.777Z,5.03
2019-04-29T05:59:16.859Z,6.72
2019-04-29T06:01:47.181Z,5.87
2019-04-29T06:04:16.347Z,6.92
2019-04-29T06:06:42.698Z,7.72
2019-04-29T06:09:11.573Z,6.85
2019-04-29T06:11:38.762Z,5.62
2019-04-29T06:14:06.378Z,6.75
2019-04-29T06:16:33.783Z,6.15
2019-04-29T06:19:05.578Z,11.50
2019-04-29T06:21:29.660Z,3.33
2019-04-29T06:23:59.490Z,4.25
2019-04-29T06:26:25.523Z,4.75
2019-04-29T06:28:52.755Z,3.50
2019-04-29T06:31:19.996Z,3.90
2019-04-29T06:33:47.382Z,3.17
2019-04-29T06:36:14.639Z,2.80
2019-04-29T06:38:41.658Z,4.42
2019-04-29T06:41:09.756Z,2.90
2019-04-29T06:43:37.488Z,3.90
2019-04-29T06:46:04.518Z,2.87
2019-04-29T06:48:31.667Z,2.90
2019-04-29T06:50:59.255Z,4.03
2019-04-29T06:53:26.320Z,3.05
2019-04-29T06:55:53.515Z,2.80
2019-04-29T06:58:20.318Z,2.62
2019-04-29T07:00:50.757Z,4.40
2019-04-29T07:03:20.896Z,3.40
2019-04-29T07:05:46.075Z,4.10
2019-04-29T07:08:13.491Z,3.37
2019-04-29T07:10:40.457Z,2.45
2019-04-29T07:13:07.395Z,5.85
2019-04-29T07:15:34.701Z,7.25
2019-04-29T07:18:01.678Z,6.55
2019-04-29T07:20:32.525Z,5.60
2019-04-29T07:23:00.754Z,3.92
2019-04-29T07:25:28.697Z,4.17
2019-04-29T07:27:55.639Z,4.33
2019-04-29T07:30:22.747Z,4.60
2019-04-29T07:32:50.431Z,4.50
2019-04-29T07:35:17.468Z,3.47
2019-04-29T07:37:44.598Z,5.50
2019-04-29T07:40:12.231Z,6.95
2019-04-29T07:42:39.584Z,8.48
2019-04-29T07:45:16.423Z,8.95
2019-04-29T07:47:56.365Z,15.35
2019-04-29T07:50:15.714Z,6.53
2019-04-29T07:52:45.595Z,4.83
2019-04-29T07:55:12.070Z,6.65
2019-04-29T07:57:39.138Z,4.42
2019-04-29T08:00:08.539Z,7.10
2019-04-29T08:02:36.510Z,4.30
2019-04-29T08:05:06.738Z,6.85
2019-04-29T08:07:35.355Z,5.70
2019-04-29T08:10:05.104Z,5.58
2019-04-29T08:12:33.432Z,5.05
2019-04-29T08:15:07.804Z,4.30
2019-04-29T08:17:34.557Z,4.67
2019-04-29T08:20:05.172Z,4.25
2019-04-29T08:22:31.724Z,13.43
2019-04-29T08:24:58.787Z,10.72
2019-04-29T08:27:39.072Z,12.90
2019-04-29T08:29:54.750Z,5.03
2019-04-29T08:32:21.711Z,4.53
2019-04-29T08:34:49.553Z,8.00
2019-04-29T08:37:16.872Z,4.78
2019-04-29T08:39:44.535Z,5.75
2019-04-29T08:42:16.679Z,6.60
2019-04-29T08:45:03.722Z,4.58
2019-04-29T08:47:32.532Z,6.60
2019-04-29T08:49:59.759Z,4.45
2019-04-29T08:52:26.862Z,4.08
2019-04-29T08:54:55.295Z,5.22
2019-04-29T08:57:22.875Z,4.87
2019-04-29T08:59:49.951Z,6.12
2019-04-29T09:02:17.158Z,5.45
2019-04-29T09:04:53.324Z,5.05
2019-04-29T09:07:17.382Z,4.35
2019-04-29T09:09:42.765Z,4.08
2019-04-29T09:12:10.103Z,7.05
2019-04-29T09:14:37.371Z,6.47
2019-04-29T09:17:09.030Z,6.87
2019-04-29T09:19:33.449Z,4.50
2019-04-29T09:22:02.403Z,5.80
2019-04-29T09:24:29.415Z,5.92
2019-04-29T09:27:05.031Z,4.65
2019-04-29T09:29:34.431Z,6.62
2019-04-29T09:32:02.147Z,6.97
2019-04-29T09:34:29.360Z,6.25
2019-04-29T09:36:56.464Z,9.25
2019-04-29T09:39:23.678Z,7.55
2019-04-29T09:41:53.378Z,8.58
2019-04-29T09:44:41.101Z,6.83
2019-04-29T09:47:10.285Z,6.58
2019-04-29T09:49:37.591Z,7.87
2019-04-29T09:52:04.918Z,7.62
2019-04-29T09:54:31.823Z,5.92
2019-04-29T09:56:58.879Z,7.05
2019-04-29T09:59:28.393Z,7.45
2019-04-29T10:02:15.387Z,6.67
2019-04-29T10:04:56.671Z,9.13
2019-04-29T10:07:19.624Z,6.55
2019-04-29T10:09:57.000Z,6.35
2019-04-29T10:12:15.582Z,5.47
2019-04-29T10:14:42.906Z,9.08
2019-04-29T10:17:15.445Z,5.87
2019-04-29T10:19:43.879Z,6.20
2019-04-29T10:22:10.987Z,6.85
2019-04-29T10:24:38.048Z,7.65
2019-04-29T10:27:07.244Z,6.45
2019-04-29T10:29:34.597Z,8.70
2019-04-29T10:32:02.428Z,9.40
2019-04-29T10:34:32.930Z,10.90
2019-04-29T10:37:00.796Z,24.07
2019-04-29T10:39:27.618Z,138.82
2019-04-29T10:41:56.265Z,63.90
2019-04-29T10:44:41.936Z,7.42
2019-04-29T10:47:13.904Z,9.73
2019-04-29T10:49:58.094Z,127.90
2019-04-29T10:52:26.083Z,12.40
2019-04-29T10:54:55.214Z,6.30
2019-04-29T10:57:22.883Z,5.22
2019-04-29T10:59:55.428Z,5.95
2019-04-29T11:02:24.430Z,7.33
2019-04-29T11:12:26.221Z,26.07
2019-04-29T11:14:53.449Z,6.35
2019-04-29T11:17:22.595Z,9.65
2019-04-29T11:19:49.899Z,17.92
2019-04-29T11:22:19.075Z,11.28
2019-04-29T11:25:04.585Z,6.70
2019-04-29T11:27:50.388Z,6.80
2019-04-29T11:30:22.490Z,7.20
2019-04-29T11:32:51.617Z,10.82
2019-04-29T11:35:37.457Z,25.08
2019-04-29T11:38:07.693Z,22.25
2019-04-29T11:40:42.981Z,17.42
2019-04-29T11:43:06.076Z,25.12
2019-04-29T11:45:37.947Z,22.13
2019-04-29T11:48:03.062Z,12.78
2019-04-29T11:50:32.154Z,12.25
2019-04-29T11:52:59.168Z,10.98
2019-04-29T11:55:26.512Z,9.20
2019-04-29T11:57:55.456Z,8.65
2019-04-29T12:00:24.655Z,10.25
2019-04-29T12:02:56.086Z,7.58
2019-04-29T12:05:28.008Z,11.70
2019-04-29T12:07:55.571Z,7.97
2019-04-29T12:10:23.108Z,7.87
2019-04-29T12:12:50.986Z,6.25
2019-04-29T12:15:23.215Z,6.53
2019-04-29T12:18:08.602Z,12.85
2019-04-29T12:20:40.618Z,7.78
2019-04-29T12:23:11.172Z,7.65
2019-04-29T12:25:36.788Z,7.60
2019-04-29T12:28:12.498Z,7.53
2019-04-29T12:30:37.355Z,8.95
2019-04-29T12:33:04.379Z,8.03
2019-04-29T12:35:51.012Z,6.83
2019-04-29T12:38:39.363Z,8.98
2019-04-29T12:41:01.227Z,10.50
2019-04-29T12:43:32.323Z,24.60
2019-04-29T12:46:10.172Z,16.35
2019-04-29T12:48:38.805Z,17.20
2019-04-29T12:51:05.497Z,16.87
2019-04-29T12:53:32.611Z,14.10
2019-04-29T12:56:00.074Z,15.18
2019-04-29T12:58:27.174Z,19.75
2019-04-29T13:01:01.072Z,17.00
2019-04-29T13:03:30.966Z,21.10
2019-04-29T13:06:23.720Z,23.35
2019-04-29T13:08:47.897Z,23.90
2019-04-29T13:11:19.179Z,23.05
2019-04-29T13:13:44.668Z,18.73
2019-04-29T13:16:21.980Z,16.23
2019-04-29T13:19:10.637Z,16.80
2019-04-29T13:21:26.045Z,29.60
2019-04-29T13:24:04.932Z,23.27
2019-04-29T13:26:28.145Z,19.10
2019-04-29T13:29:00.241Z,16.77
2019-04-29T13:31:20.334Z,17.75
2019-04-29T13:33:50.868Z,19.62
2019-04-29T13:36:19.718Z,19.35
2019-04-29T13:38:46.562Z,18.98
2019-04-29T13:41:14.270Z,20.50
2019-04-29T13:43:42.581Z,18.30
2019-04-29T13:46:12.583Z,16.95
2019-04-29T13:49:06.439Z,15.95
2019-04-29T13:51:47.163Z,19.50
2019-04-29T13:54:14.211Z,22.80
2019-04-29T13:56:55.471Z,21.40
2019-04-29T13:59:12.596Z,39.67
2019-04-29T14:02:04.421Z,49.42
2019-04-29T14:04:29.668Z,66.82
2019-04-29T14:06:57.665Z,34.23
2019-04-29T14:09:25.035Z,66.12
2019-04-29T14:12:01.743Z,58.38
2019-04-29T14:14:22.643Z,45.67
2019-04-29T14:16:49.949Z,44.58
2019-04-29T14:19:20.545Z,26.68
2019-04-29T14:21:46.046Z,31.70
2019-04-29T14:24:13.187Z,72.20
2019-04-29T14:26:42.015Z,67.00
2019-04-29T14:29:08.994Z,105.27
2019-04-29T14:31:35.927Z,130.82
2019-04-29T14:34:05.300Z,50.70
2019-04-29T14:36:32.323Z,46.42
2019-04-29T14:38:59.238Z,69.20
2019-04-29T14:41:28.362Z,91.92
2019-04-29T14:44:00.006Z,31.48
2019-04-29T14:46:34.968Z,48.85
2019-04-29T14:49:10.371Z,33.55
2019-04-29T14:51:38.100Z,40.10
2019-04-29T14:54:06.128Z,43.30
2019-04-29T14:56:34.298Z,71.20
2019-04-29T14:59:06.856Z,54.03
2019-04-29T15:01:38.852Z,25.77
2019-04-29T15:04:17.920Z,32.50
2019-04-29T15:06:37.378Z,22.37
2019-04-29T15:09:16.736Z,32.20
2019-04-29T15:11:41.158Z,29.60
2019-04-29T15:14:27.991Z,36.10
2019-04-29T15:19:49.396Z,92.70
2019-04-29T15:22:27.026Z,74.47
2019-04-29T15:24:53.950Z,46.83
2019-04-29T15:27:21.139Z,37.10
2019-04-29T15:29:48.140Z,35.17
2019-04-29T15:32:17.943Z,41.15
2019-04-29T15:34:48.149Z,37.25
2019-04-29T15:37:13.642Z,38.80
2019-04-29T15:39:45.334Z,31.52
2019-04-29T15:42:09.981Z,69.35
2019-04-29T15:44:37.222Z,49.93
2019-04-29T15:47:04.209Z,36.63
2019-04-29T15:49:31.337Z,23.65
2019-04-29T15:51:58.249Z,24.87
2019-04-29T15:54:26.187Z,25.35
2019-04-29T15:56:54.159Z,60.15
2019-04-29T15:59:21.181Z,47.15
2019-04-29T16:01:48.088Z,58.05
2019-04-29T16:04:20.744Z,51.63
2019-04-29T16:06:48.135Z,83.30
2019-04-29T16:12:05.112Z,119.47
2019-04-29T16:14:30.042Z,102.20
2019-04-29T16:16:57.267Z,149.53
2019-04-29T16:19:24.099Z,182.72
2019-04-29T16:21:51.021Z,153.90
2019-04-29T16:24:26.213Z,174.97
2019-04-29T16:26:53.239Z,109.45
2019-04-29T16:29:15.976Z,80.70
2019-04-29T16:31:42.767Z,46.00
2019-04-29T16:34:09.811Z,51.40
2019-04-29T16:36:36.685Z,47.55
2019-04-29T16:39:05.018Z,54.80
2019-04-29T16:41:35.578Z,37.80
2019-04-29T16:44:05.116Z,40.75
2019-04-29T16:46:37.579Z,30.50
2019-04-29T16:49:02.867Z,29.70
2019-04-29T16:51:29.892Z,31.93
2019-04-29T16:53:57.632Z,31.48
2019-04-29T16:56:24.546Z,37.30
2019-04-29T16:58:51.612Z,57.05
2019-04-29T17:01:18.726Z,45.80
2019-04-29T17:03:45.774Z,41.68
2019-04-29T17:06:12.889Z,45.30
2019-04-29T17:08:50.660Z,50.50
2019-04-29T17:11:27.328Z,54.83
2019-04-29T17:13:54.427Z,49.42
2019-04-29T17:16:23.271Z,46.88
2019-04-29T17:18:50.193Z,42.67
2019-04-29T17:21:17.396Z,49.55
2019-04-29T17:23:44.336Z,52.20
2019-04-29T17:26:11.351Z,46.58
2019-04-29T17:28:46.730Z,44.67
2019-04-29T17:31:30.705Z,45.83
2019-04-29T17:34:00.127Z,43.90
2019-04-29T17:35:17.187Z,125.05
2019-04-29T17:36:27.913Z,35.35
2019-04-29T17:38:54.935Z,35.23
2019-04-29T17:41:21.888Z,40.73
2019-04-29T17:43:48.708Z,50.38
2019-04-29T17:46:28.046Z,55.60
2019-04-29T17:49:05.927Z,58.08
2019-04-29T17:51:34.035Z,55.58
2019-04-29T17:54:05.237Z,52.08
2019-04-29T17:56:32.192Z,48.35
2019-04-29T17:59:01.699Z,41.65
2019-04-29T18:01:28.691Z,39.15
2019-04-29T18:03:55.852Z,43.42
2019-04-29T18:06:28.349Z,47.65
2019-04-29T18:09:15.813Z,43.90
2019-04-29T18:11:51.868Z,47.25
2019-04-29T18:14:12.071Z,45.58
2019-04-29T18:16:43.697Z,69.82
2019-04-29T18:19:18.967Z,94.20
2019-04-29T18:22:07.199Z,89.42
2019-04-29T18:24:38.584Z,65.12
2019-04-29T18:27:16.332Z,61.40
2019-04-29T18:29:43.475Z,77.80
2019-04-29T18:32:10.479Z,73.92
2019-04-29T18:34:37.654Z,73.40
2019-04-29T18:37:06.537Z,74.00
2019-04-29T18:39:33.699Z,52.35
2019-04-29T18:42:03.084Z,57.73
2019-04-29T18:44:29.631Z,58.13
2019-04-29T18:46:57.366Z,64.47
2019-04-29T18:49:25.833Z,113.77
2019-04-29T18:51:52.828Z,107.00
2019-04-29T18:54:20.249Z,94.20
2019-04-29T18:56:47.335Z,106.87
2019-04-29T18:59:17.882Z,98.45
2019-04-29T19:01:45.042Z,57.80
2019-04-29T19:04:19.088Z,54.27
2019-04-29T19:06:46.131Z,51.05
2019-04-29T19:09:18.554Z,80.97
2019-04-29T19:11:42.914Z,113.72
2019-04-29T19:14:10.022Z,88.97
2019-04-29T19:16:39.362Z,65.12
2019-04-29T19:19:05.899Z,50.03
2019-04-29T19:21:33.026Z,44.55
2019-04-29T19:24:00.725Z,55.67
2019-04-29T19:26:28.051Z,77.32
2019-04-29T19:28:56.417Z,67.75
2019-04-29T19:31:25.182Z,111.10
2019-04-29T19:33:52.519Z,85.77
2019-04-29T19:36:21.748Z,92.12
2019-04-29T19:38:49.459Z,73.72
2019-04-29T19:41:18.094Z,138.55
2019-04-29T19:43:48.304Z,98.17
2019-04-29T19:46:22.545Z,97.27
2019-04-29T19:48:44.998Z,79.35
2019-04-29T19:51:16.025Z,75.08
2019-04-29T19:53:43.557Z,55.83
2019-04-29T19:56:12.642Z,37.95
2019-04-29T19:58:39.892Z,31.42
2019-04-29T20:01:13.434Z,39.23
2019-04-29T20:03:41.705Z,35.98
2019-04-29T20:06:14.072Z,34.58
2019-04-29T20:08:51.051Z,35.10
2019-04-29T20:11:14.039Z,38.23
2019-04-29T20:13:40.195Z,36.55
2019-04-29T20:16:17.932Z,39.45
2019-04-29T20:18:57.772Z,45.88
2019-04-29T20:23:27.470Z,66.82
2019-04-29T20:23:46.297Z,62.75
2019-04-29T20:26:29.715Z,64.80
2019-04-29T20:28:57.019Z,80.35
2019-04-29T20:31:26.071Z,68.50
2019-04-29T20:33:53.545Z,52.20
2019-04-29T20:36:33.011Z,49.27
2019-04-29T20:38:50.288Z,46.90
2019-04-29T20:41:30.069Z,47.62
2019-04-29T20:43:46.605Z,68.12
2019-04-29T20:46:15.956Z,70.78
2019-04-29T20:48:42.989Z,74.15
2019-04-29T20:51:13.602Z,47.67
2019-04-29T20:53:41.052Z,37.93
2019-04-29T20:56:12.035Z,39.50
2019-04-29T20:58:37.189Z,39.98
2019-04-29T21:01:10.861Z,52.30
2019-04-29T21:03:35.825Z,61.05
2019-04-29T21:06:04.541Z,69.30
2019-04-29T21:08:32.145Z,76.45
2019-04-29T21:11:01.105Z,56.77
2019-04-29T21:13:48.800Z,149.70
2019-04-29T21:16:22.812Z,184.80
2019-04-29T21:18:53.038Z,129.25
2019-04-29T21:21:20.945Z,62.45
2019-04-29T21:23:48.357Z,43.98
2019-04-29T21:26:15.856Z,28.10
2019-04-29T21:28:46.527Z,24.57
2019-04-29T21:31:16.660Z,23.62
2019-04-29T21:33:41.098Z,26.97
2019-04-29T21:36:15.317Z,26.00
2019-04-29T21:39:01.854Z,22.42
2019-04-29T21:41:29.450Z,26.50
2019-04-29T21:43:56.653Z,26.42
2019-04-29T21:46:27.912Z,26.42
2019-04-29T21:48:52.513Z,30.37
2019-04-29T21:51:19.434Z,42.78
2019-04-29T21:53:47.069Z,43.48
2019-04-29T21:56:16.035Z,44.70
2019-04-29T21:58:43.083Z,38.90
2019-04-29T22:01:10.201Z,35.25
2019-04-29T22:03:37.312Z,37.63
2019-04-29T22:06:04.579Z,32.98
2019-04-29T22:08:31.676Z,39.18
2019-04-29T22:11:04.901Z,41.30
2019-04-29T22:13:30.700Z,43.42
2019-04-29T22:15:57.387Z,56.28
2019-04-29T22:18:25.819Z,60.45
2019-04-29T22:20:52.870Z,36.23
2019-04-29T22:23:19.979Z,76.25
2019-04-29T22:25:47.402Z,49.95
2019-04-29T22:28:16.024Z,57.43
2019-04-29T22:30:45.289Z,79.97
2019-04-29T22:33:12.719Z,57.10
2019-04-29T22:35:40.852Z,54.00
2019-04-29T22:38:12.484Z,41.40
2019-04-29T22:40:40.945Z,28.67
2019-04-29T22:43:14.281Z,69.55
2019-04-29T22:45:40.831Z,37.13
2019-04-29T22:48:14.867Z,33.90
2019-04-29T22:50:38.271Z,36.53
2019-04-29T22:53:08.739Z,60.08
2019-04-29T22:55:37.174Z,80.03
2019-04-29T22:58:08.130Z,54.40
2019-04-29T23:00:33.873Z,28.00
2019-04-29T23:03:02.417Z,25.43
2019-04-29T23:05:30.361Z,32.73
2019-04-29T23:08:00.222Z,30.37
2019-04-29T23:10:28.048Z,30.57
2019-04-29T23:12:57.450Z,29.85
2019-04-29T23:15:26.044Z,35.50
2019-04-29T23:17:53.260Z,39.10
2019-04-29T23:20:28.862Z,41.68
2019-04-29T23:22:57.944Z,44.93
2019-04-29T23:25:29.925Z,43.50
2019-04-29T23:27:56.017Z,44.05
2019-04-29T23:30:25.131Z,45.08
2019-04-29T23:32:52.255Z,40.52
2019-04-29T23:35:19.328Z,45.05
2019-04-29T23:37:46.230Z,39.58
2019-04-29T23:40:13.631Z,37.48
2019-04-29T23:42:43.701Z,39.10
2019-04-29T23:45:18.719Z,43.05
2019-04-29T23:47:41.886Z,47.30
2019-04-29T23:50:08.044Z,50.80
2019-04-29T23:52:37.250Z,47.85
2019-04-29T23:55:07.787Z,62.33
2019-04-29T23:57:55.483Z,61.63
